sensor_id;sensor_type;location;lat;lon;timestamp;P1;durP1;ratioP1;P2;durP2;ratioP2
74898;SDS011;63458;48.210;16.338;2023-11-19T00:02:07;19.98;;;11.57;;
74898;SDS011;63458;48.210;16.338;2023-11-19T00:04:36;20.52;;;13.88;;
74898;SDS011;63458;48.210;16.338;2023-11-19T00:07:04;16.25;;;10.07;;
74898;SDS011;63458;48.210;16.338;2023-11-19T00:09:31;16.02;;;8.95;;
74898;SDS011;63458;48.210;16.338;2023-11-19T00:11:57;15.65;;;9.02;;
74898;SDS011;63458;48.210;16.338;2023-11-19T00:14:25;14.95;;;8.52;;
74898;SDS011;63458;48.210;16.338;2023-11-19T00:16:51;13.98;;;8.18;;
74898;SDS011;63458;48.210;16.338;2023-11-19T00:19:18;14.70;;;9.43;;
74898;SDS011;63458;48.210;16.338;2023-11-19T00:21:45;16.08;;;9.05;;
74898;SDS011;63458;48.210;16.338;2023-11-19T00:24:11;13.23;;;8.70;;
74898;SDS011;63458;48.210;16.338;2023-11-19T00:26:37;14.48;;;7.85;;
74898;SDS011;63458;48.210;16.338;2023-11-19T00:29:04;13.75;;;7.57;;
74898;SDS011;63458;48.210;16.338;2023-11-19T00:31:30;14.93;;;8.60;;
74898;SDS011;63458;48.210;16.338;2023-11-19T00:33:56;12.82;;;7.45;;
74898;SDS011;63458;48.210;16.338;2023-11-19T00:36:23;12.63;;;8.20;;
74898;SDS011;63458;48.210;16.338;2023-11-19T00:38:49;11.98;;;7.35;;
74898;SDS011;63458;48.210;16.338;2023-11-19T00:41:15;13.15;;;7.03;;
74898;SDS011;63458;48.210;16.338;2023-11-19T00:43:44;11.43;;;6.40;;
74898;SDS011;63458;48.210;16.338;2023-11-19T00:46:10;11.60;;;6.85;;
74898;SDS011;63458;48.210;16.338;2023-11-19T00:48:36;13.75;;;7.50;;
74898;SDS011;63458;48.210;16.338;2023-11-19T00:51:02;10.93;;;7.22;;
74898;SDS011;63458;48.210;16.338;2023-11-19T00:53:31;12.95;;;8.35;;
74898;SDS011;63458;48.210;16.338;2023-11-19T00:55:58;11.90;;;6.75;;
74898;SDS011;63458;48.210;16.338;2023-11-19T00:58:25;11.55;;;7.07;;
74898;SDS011;63458;48.210;16.338;2023-11-19T01:00:51;13.40;;;7.18;;
74898;SDS011;63458;48.210;16.338;2023-11-19T01:03:17;11.05;;;6.68;;
74898;SDS011;63458;48.210;16.338;2023-11-19T01:05:43;11.80;;;7.32;;
74898;SDS011;63458;48.210;16.338;2023-11-19T01:08:09;12.95;;;7.63;;
74898;SDS011;63458;48.210;16.338;2023-11-19T01:10:38;14.57;;;8.15;;
74898;SDS011;63458;48.210;16.338;2023-11-19T01:13:04;13.00;;;8.45;;
74898;SDS011;63458;48.210;16.338;2023-11-19T01:15:33;10.88;;;6.28;;
74898;SDS011;63458;48.210;16.338;2023-11-19T01:17:59;12.45;;;7.25;;
74898;SDS011;63458;48.210;16.338;2023-11-19T01:20:27;12.93;;;7.10;;
74898;SDS011;63458;48.210;16.338;2023-11-19T01:22:53;14.35;;;7.53;;
74898;SDS011;63458;48.210;16.338;2023-11-19T01:25:19;14.32;;;8.45;;
74898;SDS011;63458;48.210;16.338;2023-11-19T01:27:45;17.63;;;10.05;;
74898;SDS011;63458;48.210;16.338;2023-11-19T01:30:11;14.25;;;8.35;;
74898;SDS011;63458;48.210;16.338;2023-11-19T01:32:38;13.43;;;7.50;;
74898;SDS011;63458;48.210;16.338;2023-11-19T01:35:04;14.57;;;7.68;;
74898;SDS011;63458;48.210;16.338;2023-11-19T01:37:30;11.93;;;7.57;;
74898;SDS011;63458;48.210;16.338;2023-11-19T01:39:59;11.52;;;6.65;;
74898;SDS011;63458;48.210;16.338;2023-11-19T01:42:27;12.80;;;7.10;;
74898;SDS011;63458;48.210;16.338;2023-11-19T01:45:00;11.52;;;6.63;;
74898;SDS011;63458;48.210;16.338;2023-11-19T01:47:26;12.38;;;7.47;;
74898;SDS011;63458;48.210;16.338;2023-11-19T01:49:54;12.15;;;7.35;;
74898;SDS011;63458;48.210;16.338;2023-11-19T01:52:21;11.52;;;7.30;;
74898;SDS011;63458;48.210;16.338;2023-11-19T01:54:47;10.52;;;6.32;;
74898;SDS011;63458;48.210;16.338;2023-11-19T01:57:14;11.75;;;6.90;;
74898;SDS011;63458;48.210;16.338;2023-11-19T01:59:40;11.82;;;6.43;;
74898;SDS011;63458;48.210;16.338;2023-11-19T02:02:06;10.35;;;6.43;;
74898;SDS011;63458;48.210;16.338;2023-11-19T02:04:33;11.65;;;6.60;;
74898;SDS011;63458;48.210;16.338;2023-11-19T02:06:59;10.95;;;6.90;;
74898;SDS011;63458;48.210;16.338;2023-11-19T02:09:26;11.43;;;6.93;;
74898;SDS011;63458;48.210;16.338;2023-11-19T02:11:52;10.30;;;6.47;;
74898;SDS011;63458;48.210;16.338;2023-11-19T02:14:19;10.90;;;6.68;;
74898;SDS011;63458;48.210;16.338;2023-11-19T02:16:48;11.90;;;6.78;;
74898;SDS011;63458;48.210;16.338;2023-11-19T02:19:14;11.02;;;6.25;;
74898;SDS011;63458;48.210;16.338;2023-11-19T02:21:40;11.27;;;6.22;;
74898;SDS011;63458;48.210;16.338;2023-11-19T02:24:07;9.00;;;5.55;;
74898;SDS011;63458;48.210;16.338;2023-11-19T02:26:39;9.57;;;5.22;;
74898;SDS011;63458;48.210;16.338;2023-11-19T02:29:06;10.35;;;5.20;;
74898;SDS011;63458;48.210;16.338;2023-11-19T02:31:32;8.75;;;5.07;;
74898;SDS011;63458;48.210;16.338;2023-11-19T02:34:00;8.93;;;5.22;;
74898;SDS011;63458;48.210;16.338;2023-11-19T02:36:27;9.10;;;5.13;;
74898;SDS011;63458;48.210;16.338;2023-11-19T02:38:53;9.38;;;5.45;;
74898;SDS011;63458;48.210;16.338;2023-11-19T02:41:20;8.18;;;4.72;;
74898;SDS011;63458;48.210;16.338;2023-11-19T02:43:46;8.70;;;5.13;;
74898;SDS011;63458;48.210;16.338;2023-11-19T02:46:13;9.38;;;5.22;;
74898;SDS011;63458;48.210;16.338;2023-11-19T02:48:42;9.02;;;5.45;;
74898;SDS011;63458;48.210;16.338;2023-11-19T02:51:09;8.50;;;4.93;;
74898;SDS011;63458;48.210;16.338;2023-11-19T02:53:35;8.80;;;5.18;;
74898;SDS011;63458;48.210;16.338;2023-11-19T02:56:04;8.70;;;4.95;;
74898;SDS011;63458;48.210;16.338;2023-11-19T02:58:44;8.73;;;4.68;;
74898;SDS011;63458;48.210;16.338;2023-11-19T03:01:11;8.77;;;4.85;;
74898;SDS011;63458;48.210;16.338;2023-11-19T03:03:49;8.75;;;4.93;;
74898;SDS011;63458;48.210;16.338;2023-11-19T03:06:19;9.02;;;5.00;;
74898;SDS011;63458;48.210;16.338;2023-11-19T03:08:46;9.27;;;5.03;;
74898;SDS011;63458;48.210;16.338;2023-11-19T03:11:13;9.15;;;5.05;;
74898;SDS011;63458;48.210;16.338;2023-11-19T03:13:39;9.43;;;5.88;;
74898;SDS011;63458;48.210;16.338;2023-11-19T03:16:05;10.35;;;5.25;;
74898;SDS011;63458;48.210;16.338;2023-11-19T03:18:31;8.65;;;4.35;;
74898;SDS011;63458;48.210;16.338;2023-11-19T03:20:58;9.48;;;4.72;;
74898;SDS011;63458;48.210;16.338;2023-11-19T03:23:24;10.52;;;6.28;;
74898;SDS011;63458;48.210;16.338;2023-11-19T03:25:52;9.63;;;5.03;;
74898;SDS011;63458;48.210;16.338;2023-11-19T03:28:18;9.93;;;5.55;;
74898;SDS011;63458;48.210;16.338;2023-11-19T03:30:44;9.02;;;4.50;;
74898;SDS011;63458;48.210;16.338;2023-11-19T03:33:10;10.40;;;5.22;;
74898;SDS011;63458;48.210;16.338;2023-11-19T03:35:36;8.75;;;4.50;;
74898;SDS011;63458;48.210;16.338;2023-11-19T03:38:02;9.95;;;5.32;;
74898;SDS011;63458;48.210;16.338;2023-11-19T03:40:28;8.93;;;5.07;;
74898;SDS011;63458;48.210;16.338;2023-11-19T03:42:58;11.52;;;5.22;;
74898;SDS011;63458;48.210;16.338;2023-11-19T03:45:24;9.80;;;5.50;;
74898;SDS011;63458;48.210;16.338;2023-11-19T03:47:50;11.52;;;5.38;;
74898;SDS011;63458;48.210;16.338;2023-11-19T03:50:16;13.13;;;6.85;;
74898;SDS011;63458;48.210;16.338;2023-11-19T03:52:45;10.52;;;5.70;;
74898;SDS011;63458;48.210;16.338;2023-11-19T03:55:11;9.65;;;5.30;;
74898;SDS011;63458;48.210;16.338;2023-11-19T03:57:38;10.75;;;5.45;;
74898;SDS011;63458;48.210;16.338;2023-11-19T04:00:04;9.60;;;4.60;;
74898;SDS011;63458;48.210;16.338;2023-11-19T04:02:35;10.32;;;6.15;;
74898;SDS011;63458;48.210;16.338;2023-11-19T04:05:01;10.65;;;5.70;;
74898;SDS011;63458;48.210;16.338;2023-11-19T04:07:29;8.43;;;4.55;;
74898;SDS011;63458;48.210;16.338;2023-11-19T04:09:55;8.40;;;4.50;;
74898;SDS011;63458;48.210;16.338;2023-11-19T04:12:21;10.27;;;4.68;;
74898;SDS011;63458;48.210;16.338;2023-11-19T04:14:47;8.52;;;4.50;;
74898;SDS011;63458;48.210;16.338;2023-11-19T04:17:13;7.55;;;4.00;;
74898;SDS011;63458;48.210;16.338;2023-11-19T04:19:39;8.60;;;4.75;;
74898;SDS011;63458;48.210;16.338;2023-11-19T04:22:08;12.30;;;5.50;;
74898;SDS011;63458;48.210;16.338;2023-11-19T04:24:34;9.55;;;5.30;;
74898;SDS011;63458;48.210;16.338;2023-11-19T04:27:00;9.05;;;5.15;;
74898;SDS011;63458;48.210;16.338;2023-11-19T04:29:26;9.65;;;4.80;;
74898;SDS011;63458;48.210;16.338;2023-11-19T04:31:52;10.15;;;5.13;;
74898;SDS011;63458;48.210;16.338;2023-11-19T04:34:19;8.52;;;4.70;;
74898;SDS011;63458;48.210;16.338;2023-11-19T04:36:45;8.70;;;4.57;;
74898;SDS011;63458;48.210;16.338;2023-11-19T04:39:11;9.00;;;5.72;;
74898;SDS011;63458;48.210;16.338;2023-11-19T04:41:50;9.85;;;5.28;;
74898;SDS011;63458;48.210;16.338;2023-11-19T04:44:19;9.10;;;5.03;;
74898;SDS011;63458;48.210;16.338;2023-11-19T04:46:45;8.80;;;4.65;;
74898;SDS011;63458;48.210;16.338;2023-11-19T04:49:11;9.85;;;4.85;;
74898;SDS011;63458;48.210;16.338;2023-11-19T04:51:38;9.05;;;4.60;;
74898;SDS011;63458;48.210;16.338;2023-11-19T04:54:05;10.88;;;5.00;;
74898;SDS011;63458;48.210;16.338;2023-11-19T04:56:33;9.80;;;5.15;;
74898;SDS011;63458;48.210;16.338;2023-11-19T04:59:00;9.52;;;5.00;;
74898;SDS011;63458;48.210;16.338;2023-11-19T05:01:26;9.32;;;4.80;;
74898;SDS011;63458;48.210;16.338;2023-11-19T05:03:52;9.20;;;5.15;;
74898;SDS011;63458;48.210;16.338;2023-11-19T05:06:18;9.20;;;5.25;;
74898;SDS011;63458;48.210;16.338;2023-11-19T05:08:45;8.63;;;4.90;;
74898;SDS011;63458;48.210;16.338;2023-11-19T05:11:11;9.82;;;5.50;;
74898;SDS011;63458;48.210;16.338;2023-11-19T05:13:42;10.80;;;5.63;;
74898;SDS011;63458;48.210;16.338;2023-11-19T05:16:10;9.63;;;5.43;;
74898;SDS011;63458;48.210;16.338;2023-11-19T05:18:39;8.57;;;4.72;;
74898;SDS011;63458;48.210;16.338;2023-11-19T05:21:05;9.73;;;4.82;;
74898;SDS011;63458;48.210;16.338;2023-11-19T05:23:31;9.75;;;5.10;;
74898;SDS011;63458;48.210;16.338;2023-11-19T05:25:58;10.25;;;5.40;;
74898;SDS011;63458;48.210;16.338;2023-11-19T05:28:25;9.13;;;5.03;;
74898;SDS011;63458;48.210;16.338;2023-11-19T05:30:51;9.60;;;4.95;;
74898;SDS011;63458;48.210;16.338;2023-11-19T05:33:17;8.57;;;4.82;;
74898;SDS011;63458;48.210;16.338;2023-11-19T05:35:43;9.65;;;5.30;;
74898;SDS011;63458;48.210;16.338;2023-11-19T05:38:09;9.43;;;5.43;;
74898;SDS011;63458;48.210;16.338;2023-11-19T05:40:35;10.02;;;5.15;;
74898;SDS011;63458;48.210;16.338;2023-11-19T05:43:01;9.38;;;5.35;;
74898;SDS011;63458;48.210;16.338;2023-11-19T05:45:27;9.52;;;4.90;;
74898;SDS011;63458;48.210;16.338;2023-11-19T05:47:53;10.88;;;4.85;;
74898;SDS011;63458;48.210;16.338;2023-11-19T05:50:19;10.77;;;5.53;;
74898;SDS011;63458;48.210;16.338;2023-11-19T05:52:45;9.73;;;5.18;;
74898;SDS011;63458;48.210;16.338;2023-11-19T05:55:11;9.43;;;5.57;;
74898;SDS011;63458;48.210;16.338;2023-11-19T05:57:38;9.88;;;5.50;;
74898;SDS011;63458;48.210;16.338;2023-11-19T06:00:05;10.38;;;5.30;;
74898;SDS011;63458;48.210;16.338;2023-11-19T06:02:32;11.30;;;6.25;;
74898;SDS011;63458;48.210;16.338;2023-11-19T06:04:59;10.82;;;6.22;;
74898;SDS011;63458;48.210;16.338;2023-11-19T06:07:25;10.27;;;5.70;;
74898;SDS011;63458;48.210;16.338;2023-11-19T06:09:51;10.50;;;6.00;;
74898;SDS011;63458;48.210;16.338;2023-11-19T06:12:17;10.07;;;5.78;;
74898;SDS011;63458;48.210;16.338;2023-11-19T06:14:43;10.90;;;6.43;;
74898;SDS011;63458;48.210;16.338;2023-11-19T06:17:09;11.27;;;6.05;;
74898;SDS011;63458;48.210;16.338;2023-11-19T06:19:36;11.55;;;6.53;;
74898;SDS011;63458;48.210;16.338;2023-11-19T06:22:03;10.32;;;6.57;;
74898;SDS011;63458;48.210;16.338;2023-11-19T06:24:29;11.77;;;6.03;;
74898;SDS011;63458;48.210;16.338;2023-11-19T06:26:55;12.05;;;7.40;;
74898;SDS011;63458;48.210;16.338;2023-11-19T06:29:21;11.45;;;7.45;;
74898;SDS011;63458;48.210;16.338;2023-11-19T06:31:47;11.00;;;6.85;;
74898;SDS011;63458;48.210;16.338;2023-11-19T06:34:14;11.77;;;6.32;;
74898;SDS011;63458;48.210;16.338;2023-11-19T06:36:40;12.18;;;7.43;;
74898;SDS011;63458;48.210;16.338;2023-11-19T06:39:06;13.43;;;7.10;;
74898;SDS011;63458;48.210;16.338;2023-11-19T06:41:33;25.20;;;13.82;;
74898;SDS011;63458;48.210;16.338;2023-11-19T06:43:59;12.50;;;7.10;;
74898;SDS011;63458;48.210;16.338;2023-11-19T06:46:25;11.68;;;7.13;;
74898;SDS011;63458;48.210;16.338;2023-11-19T06:48:51;11.50;;;7.05;;
74898;SDS011;63458;48.210;16.338;2023-11-19T06:51:17;11.82;;;6.80;;
74898;SDS011;63458;48.210;16.338;2023-11-19T06:53:43;11.45;;;7.00;;
74898;SDS011;63458;48.210;16.338;2023-11-19T06:56:21;11.48;;;7.00;;
74898;SDS011;63458;48.210;16.338;2023-11-19T06:58:48;12.02;;;7.20;;
74898;SDS011;63458;48.210;16.338;2023-11-19T07:01:14;11.18;;;7.05;;
74898;SDS011;63458;48.210;16.338;2023-11-19T07:03:41;12.55;;;7.28;;
74898;SDS011;63458;48.210;16.338;2023-11-19T07:06:07;12.35;;;7.35;;
74898;SDS011;63458;48.210;16.338;2023-11-19T07:08:33;11.18;;;7.15;;
74898;SDS011;63458;48.210;16.338;2023-11-19T07:10:59;11.50;;;6.60;;
74898;SDS011;63458;48.210;16.338;2023-11-19T07:13:25;12.02;;;7.13;;
74898;SDS011;63458;48.210;16.338;2023-11-19T07:15:53;11.50;;;6.70;;
74898;SDS011;63458;48.210;16.338;2023-11-19T07:18:19;11.60;;;6.70;;
74898;SDS011;63458;48.210;16.338;2023-11-19T07:20:47;9.95;;;6.20;;
74898;SDS011;63458;48.210;16.338;2023-11-19T07:23:14;10.20;;;6.25;;
74898;SDS011;63458;48.210;16.338;2023-11-19T07:25:42;10.38;;;6.00;;
74898;SDS011;63458;48.210;16.338;2023-11-19T07:28:09;11.32;;;6.80;;
74898;SDS011;63458;48.210;16.338;2023-11-19T07:30:35;10.38;;;6.13;;
74898;SDS011;63458;48.210;16.338;2023-11-19T07:33:01;12.68;;;6.60;;
74898;SDS011;63458;48.210;16.338;2023-11-19T07:35:29;11.00;;;6.45;;
74898;SDS011;63458;48.210;16.338;2023-11-19T07:37:58;10.98;;;6.28;;
74898;SDS011;63458;48.210;16.338;2023-11-19T07:40:24;12.18;;;6.38;;
74898;SDS011;63458;48.210;16.338;2023-11-19T07:42:50;9.88;;;5.82;;
74898;SDS011;63458;48.210;16.338;2023-11-19T07:45:16;11.70;;;6.43;;
74898;SDS011;63458;48.210;16.338;2023-11-19T07:47:43;12.35;;;6.53;;
74898;SDS011;63458;48.210;16.338;2023-11-19T07:50:09;10.55;;;6.50;;
74898;SDS011;63458;48.210;16.338;2023-11-19T07:52:36;13.05;;;7.60;;
74898;SDS011;63458;48.210;16.338;2023-11-19T07:55:02;13.90;;;8.13;;
74898;SDS011;63458;48.210;16.338;2023-11-19T07:57:30;12.55;;;7.05;;
74898;SDS011;63458;48.210;16.338;2023-11-19T07:59:59;16.42;;;8.80;;
74898;SDS011;63458;48.210;16.338;2023-11-19T08:02:26;21.25;;;12.27;;
74898;SDS011;63458;48.210;16.338;2023-11-19T08:04:53;12.60;;;7.05;;
74898;SDS011;63458;48.210;16.338;2023-11-19T08:07:20;19.58;;;12.23;;
74898;SDS011;63458;48.210;16.338;2023-11-19T08:09:46;12.68;;;6.88;;
74898;SDS011;63458;48.210;16.338;2023-11-19T08:12:12;12.18;;;7.47;;
74898;SDS011;63458;48.210;16.338;2023-11-19T08:14:40;13.88;;;8.20;;
74898;SDS011;63458;48.210;16.338;2023-11-19T08:17:06;12.23;;;6.68;;
74898;SDS011;63458;48.210;16.338;2023-11-19T08:19:32;12.32;;;7.32;;
74898;SDS011;63458;48.210;16.338;2023-11-19T08:21:58;13.93;;;8.73;;
74898;SDS011;63458;48.210;16.338;2023-11-19T08:24:24;10.48;;;6.38;;
74898;SDS011;63458;48.210;16.338;2023-11-19T08:26:50;11.77;;;6.72;;
74898;SDS011;63458;48.210;16.338;2023-11-19T08:29:16;12.57;;;7.82;;
74898;SDS011;63458;48.210;16.338;2023-11-19T08:31:42;14.25;;;8.63;;
74898;SDS011;63458;48.210;16.338;2023-11-19T08:34:08;10.73;;;6.72;;
74898;SDS011;63458;48.210;16.338;2023-11-19T08:36:34;10.10;;;6.43;;
74898;SDS011;63458;48.210;16.338;2023-11-19T08:39:01;12.15;;;7.07;;
74898;SDS011;63458;48.210;16.338;2023-11-19T08:41:28;12.35;;;7.82;;
74898;SDS011;63458;48.210;16.338;2023-11-19T08:43:54;9.60;;;6.68;;
74898;SDS011;63458;48.210;16.338;2023-11-19T08:46:20;11.70;;;7.03;;
74898;SDS011;63458;48.210;16.338;2023-11-19T08:48:46;11.82;;;6.60;;
74898;SDS011;63458;48.210;16.338;2023-11-19T08:51:12;10.73;;;6.28;;
74898;SDS011;63458;48.210;16.338;2023-11-19T08:53:38;12.40;;;7.47;;
74898;SDS011;63458;48.210;16.338;2023-11-19T08:56:04;12.30;;;7.50;;
74898;SDS011;63458;48.210;16.338;2023-11-19T08:58:30;10.93;;;6.97;;
74898;SDS011;63458;48.210;16.338;2023-11-19T09:00:57;10.48;;;6.60;;
74898;SDS011;63458;48.210;16.338;2023-11-19T09:03:23;12.68;;;7.63;;
74898;SDS011;63458;48.210;16.338;2023-11-19T09:08:17;11.02;;;6.88;;
74898;SDS011;63458;48.210;16.338;2023-11-19T09:10:43;11.00;;;6.28;;
74898;SDS011;63458;48.210;16.338;2023-11-19T09:13:09;11.38;;;7.20;;
74898;SDS011;63458;48.210;16.338;2023-11-19T09:15:35;12.55;;;8.13;;
74898;SDS011;63458;48.210;16.338;2023-11-19T09:18:01;12.25;;;7.80;;
74898;SDS011;63458;48.210;16.338;2023-11-19T09:20:27;38.80;;;23.42;;
74898;SDS011;63458;48.210;16.338;2023-11-19T09:22:57;12.75;;;8.30;;
74898;SDS011;63458;48.210;16.338;2023-11-19T09:25:23;10.48;;;7.07;;
74898;SDS011;63458;48.210;16.338;2023-11-19T09:27:49;11.48;;;7.47;;
74898;SDS011;63458;48.210;16.338;2023-11-19T09:30:15;11.88;;;7.45;;
74898;SDS011;63458;48.210;16.338;2023-11-19T09:32:41;10.40;;;6.57;;
74898;SDS011;63458;48.210;16.338;2023-11-19T09:35:07;13.27;;;8.43;;
74898;SDS011;63458;48.210;16.338;2023-11-19T09:37:33;13.52;;;8.95;;
74898;SDS011;63458;48.210;16.338;2023-11-19T09:39:59;12.25;;;7.70;;
74898;SDS011;63458;48.210;16.338;2023-11-19T09:42:25;12.43;;;7.75;;
74898;SDS011;63458;48.210;16.338;2023-11-19T09:44:51;11.95;;;6.95;;
74898;SDS011;63458;48.210;16.338;2023-11-19T09:47:19;11.25;;;7.00;;
74898;SDS011;63458;48.210;16.338;2023-11-19T09:49:46;11.70;;;7.55;;
74898;SDS011;63458;48.210;16.338;2023-11-19T09:52:12;10.60;;;7.32;;
74898;SDS011;63458;48.210;16.338;2023-11-19T09:54:38;12.05;;;7.57;;
74898;SDS011;63458;48.210;16.338;2023-11-19T09:57:04;11.00;;;7.38;;
74898;SDS011;63458;48.210;16.338;2023-11-19T09:59:34;10.73;;;7.03;;
74898;SDS011;63458;48.210;16.338;2023-11-19T10:02:00;11.88;;;7.72;;
74898;SDS011;63458;48.210;16.338;2023-11-19T10:04:29;14.38;;;9.45;;
74898;SDS011;63458;48.210;16.338;2023-11-19T10:06:55;12.10;;;8.02;;
74898;SDS011;63458;48.210;16.338;2023-11-19T10:09:22;12.95;;;8.02;;
74898;SDS011;63458;48.210;16.338;2023-11-19T10:11:48;11.98;;;8.38;;
74898;SDS011;63458;48.210;16.338;2023-11-19T10:14:15;12.15;;;7.82;;
74898;SDS011;63458;48.210;16.338;2023-11-19T10:16:44;12.57;;;8.32;;
74898;SDS011;63458;48.210;16.338;2023-11-19T10:19:12;12.13;;;7.80;;
74898;SDS011;63458;48.210;16.338;2023-11-19T10:21:45;11.73;;;7.65;;
74898;SDS011;63458;48.210;16.338;2023-11-19T10:24:11;12.50;;;7.93;;
74898;SDS011;63458;48.210;16.338;2023-11-19T10:26:37;13.27;;;9.10;;
74898;SDS011;63458;48.210;16.338;2023-11-19T10:29:03;12.32;;;8.38;;
74898;SDS011;63458;48.210;16.338;2023-11-19T10:31:30;12.85;;;8.20;;
74898;SDS011;63458;48.210;16.338;2023-11-19T10:33:56;12.80;;;8.40;;
74898;SDS011;63458;48.210;16.338;2023-11-19T10:36:22;12.20;;;7.65;;
74898;SDS011;63458;48.210;16.338;2023-11-19T10:38:54;11.15;;;7.10;;
74898;SDS011;63458;48.210;16.338;2023-11-19T10:41:30;10.95;;;7.45;;
74898;SDS011;63458;48.210;16.338;2023-11-19T10:43:57;10.82;;;7.35;;
74898;SDS011;63458;48.210;16.338;2023-11-19T10:46:23;11.48;;;7.15;;
74898;SDS011;63458;48.210;16.338;2023-11-19T10:49:01;11.02;;;7.57;;
74898;SDS011;63458;48.210;16.338;2023-11-19T10:51:27;12.65;;;7.65;;
74898;SDS011;63458;48.210;16.338;2023-11-19T10:53:54;10.75;;;6.72;;
74898;SDS011;63458;48.210;16.338;2023-11-19T10:56:25;10.73;;;7.28;;
74898;SDS011;63458;48.210;16.338;2023-11-19T10:58:51;12.57;;;7.78;;
74898;SDS011;63458;48.210;16.338;2023-11-19T11:03:48;18.98;;;12.73;;
74898;SDS011;63458;48.210;16.338;2023-11-19T11:06:18;18.38;;;11.63;;
74898;SDS011;63458;48.210;16.338;2023-11-19T11:08:44;11.30;;;7.53;;
74898;SDS011;63458;48.210;16.338;2023-11-19T11:11:11;14.48;;;9.30;;
74898;SDS011;63458;48.210;16.338;2023-11-19T11:16:05;11.00;;;7.45;;
74898;SDS011;63458;48.210;16.338;2023-11-19T11:18:32;11.35;;;7.65;;
74898;SDS011;63458;48.210;16.338;2023-11-19T11:21:00;11.27;;;7.25;;
74898;SDS011;63458;48.210;16.338;2023-11-19T11:39:34;12.50;;;9.15;;
74898;SDS011;63458;48.210;16.338;2023-11-19T11:47:25;12.93;;;9.43;;
74898;SDS011;63458;48.210;16.338;2023-11-19T11:49:51;13.50;;;8.35;;
74898;SDS011;63458;48.210;16.338;2023-11-19T11:52:17;14.93;;;9.85;;
74898;SDS011;63458;48.210;16.338;2023-11-19T11:54:44;10.95;;;7.93;;
74898;SDS011;63458;48.210;16.338;2023-11-19T11:57:11;11.57;;;7.60;;
74898;SDS011;63458;48.210;16.338;2023-11-19T12:02:07;11.55;;;7.10;;
74898;SDS011;63458;48.210;16.338;2023-11-19T12:04:37;12.18;;;7.22;;
74898;SDS011;63458;48.210;16.338;2023-11-19T12:07:06;11.27;;;7.38;;
74898;SDS011;63458;48.210;16.338;2023-11-19T12:09:36;10.95;;;7.25;;
74898;SDS011;63458;48.210;16.338;2023-11-19T12:20:00;10.60;;;7.18;;
74898;SDS011;63458;48.210;16.338;2023-11-19T12:22:26;11.43;;;7.55;;
74898;SDS011;63458;48.210;16.338;2023-11-19T12:24:55;11.23;;;7.72;;
74898;SDS011;63458;48.210;16.338;2023-11-19T12:27:22;11.45;;;7.68;;
74898;SDS011;63458;48.210;16.338;2023-11-19T12:29:48;11.82;;;7.85;;
74898;SDS011;63458;48.210;16.338;2023-11-19T12:32:14;16.35;;;9.98;;
74898;SDS011;63458;48.210;16.338;2023-11-19T12:34:40;13.13;;;8.65;;
74898;SDS011;63458;48.210;16.338;2023-11-19T12:37:07;12.40;;;7.88;;
74898;SDS011;63458;48.210;16.338;2023-11-19T12:39:35;11.68;;;7.53;;
74898;SDS011;63458;48.210;16.338;2023-11-19T12:42:01;24.45;;;14.60;;
74898;SDS011;63458;48.210;16.338;2023-11-19T12:44:27;16.77;;;12.15;;
74898;SDS011;63458;48.210;16.338;2023-11-19T12:47:03;13.52;;;8.80;;
74898;SDS011;63458;48.210;16.338;2023-11-19T12:49:29;11.82;;;8.07;;
74898;SDS011;63458;48.210;16.338;2023-11-19T12:51:55;13.75;;;7.85;;
74898;SDS011;63458;48.210;16.338;2023-11-19T12:54:37;12.30;;;8.02;;
74898;SDS011;63458;48.210;16.338;2023-11-19T12:57:03;12.48;;;7.93;;
74898;SDS011;63458;48.210;16.338;2023-11-19T12:59:30;11.77;;;8.00;;
74898;SDS011;63458;48.210;16.338;2023-11-19T13:01:56;12.52;;;8.48;;
74898;SDS011;63458;48.210;16.338;2023-11-19T13:04:23;14.32;;;9.05;;
74898;SDS011;63458;48.210;16.338;2023-11-19T13:06:53;12.88;;;8.02;;
74898;SDS011;63458;48.210;16.338;2023-11-19T13:09:22;12.82;;;8.57;;
74898;SDS011;63458;48.210;16.338;2023-11-19T13:11:51;13.48;;;8.90;;
74898;SDS011;63458;48.210;16.338;2023-11-19T13:14:18;12.70;;;8.65;;
74898;SDS011;63458;48.210;16.338;2023-11-19T13:16:44;15.60;;;10.02;;
74898;SDS011;63458;48.210;16.338;2023-11-19T13:19:14;12.40;;;7.90;;
74898;SDS011;63458;48.210;16.338;2023-11-19T13:21:41;12.65;;;8.35;;
74898;SDS011;63458;48.210;16.338;2023-11-19T13:24:08;14.10;;;8.85;;
74898;SDS011;63458;48.210;16.338;2023-11-19T13:26:34;12.93;;;8.23;;
74898;SDS011;63458;48.210;16.338;2023-11-19T13:29:00;12.27;;;8.38;;
74898;SDS011;63458;48.210;16.338;2023-11-19T13:31:26;13.45;;;8.05;;
74898;SDS011;63458;48.210;16.338;2023-11-19T13:33:52;12.93;;;9.20;;
74898;SDS011;63458;48.210;16.338;2023-11-19T13:36:18;15.63;;;9.88;;
74898;SDS011;63458;48.210;16.338;2023-11-19T13:38:44;17.05;;;10.75;;
74898;SDS011;63458;48.210;16.338;2023-11-19T13:41:11;13.55;;;8.70;;
74898;SDS011;63458;48.210;16.338;2023-11-19T13:43:38;13.00;;;8.77;;
74898;SDS011;63458;48.210;16.338;2023-11-19T13:46:04;13.77;;;9.02;;
74898;SDS011;63458;48.210;16.338;2023-11-19T13:48:30;12.98;;;8.95;;
74898;SDS011;63458;48.210;16.338;2023-11-19T13:50:57;13.00;;;8.77;;
74898;SDS011;63458;48.210;16.338;2023-11-19T13:53:23;12.60;;;8.85;;
74898;SDS011;63458;48.210;16.338;2023-11-19T13:55:49;12.98;;;8.77;;
74898;SDS011;63458;48.210;16.338;2023-11-19T13:58:15;14.10;;;8.60;;
74898;SDS011;63458;48.210;16.338;2023-11-19T14:00:41;14.00;;;8.15;;
74898;SDS011;63458;48.210;16.338;2023-11-19T14:03:08;15.60;;;8.30;;
74898;SDS011;63458;48.210;16.338;2023-11-19T14:05:36;13.55;;;9.30;;
74898;SDS011;63458;48.210;16.338;2023-11-19T14:08:02;14.90;;;9.65;;
74898;SDS011;63458;48.210;16.338;2023-11-19T14:10:28;17.23;;;9.18;;
74898;SDS011;63458;48.210;16.338;2023-11-19T14:12:54;12.40;;;8.15;;
74898;SDS011;63458;48.210;16.338;2023-11-19T14:15:20;16.63;;;11.35;;
74898;SDS011;63458;48.210;16.338;2023-11-19T14:17:47;16.60;;;11.85;;
74898;SDS011;63458;48.210;16.338;2023-11-19T14:20:13;17.65;;;12.10;;
74898;SDS011;63458;48.210;16.338;2023-11-19T14:22:41;20.15;;;15.35;;
74898;SDS011;63458;48.210;16.338;2023-11-19T14:25:07;15.93;;;12.23;;
74898;SDS011;63458;48.210;16.338;2023-11-19T14:27:41;14.73;;;11.30;;
74898;SDS011;63458;48.210;16.338;2023-11-19T14:30:08;23.63;;;18.40;;
74898;SDS011;63458;48.210;16.338;2023-11-19T14:32:36;30.02;;;22.65;;
74898;SDS011;63458;48.210;16.338;2023-11-19T14:35:02;20.17;;;14.93;;
74898;SDS011;63458;48.210;16.338;2023-11-19T14:37:29;22.00;;;15.88;;
74898;SDS011;63458;48.210;16.338;2023-11-19T14:39:56;19.45;;;14.30;;
74898;SDS011;63458;48.210;16.338;2023-11-19T14:42:22;25.13;;;16.83;;
74898;SDS011;63458;48.210;16.338;2023-11-19T14:44:50;17.70;;;10.63;;
74898;SDS011;63458;48.210;16.338;2023-11-19T14:49:43;19.65;;;11.75;;
74898;SDS011;63458;48.210;16.338;2023-11-19T14:52:09;17.73;;;11.13;;
74898;SDS011;63458;48.210;16.338;2023-11-19T14:54:36;15.13;;;10.05;;
74898;SDS011;63458;48.210;16.338;2023-11-19T14:57:03;17.35;;;11.63;;
74898;SDS011;63458;48.210;16.338;2023-11-19T14:59:29;20.02;;;14.32;;
74898;SDS011;63458;48.210;16.338;2023-11-19T15:01:55;20.95;;;16.25;;
74898;SDS011;63458;48.210;16.338;2023-11-19T15:04:22;18.65;;;11.85;;